Weather at Centre Hospitalier Heliport

Public forecast

Using degrees Celsius for public forecast. Weather courtesy of forecast.io.

Closest aviation weather report (METAR) to Centre Hospitalier Heliport

Closest report is Cognac-Ch√Ęteaubernard (BA 709) Air Base, 31.2 nm (57.8 km) E. Retrieved 2021/08/01 00:30 UTC (11 minutes ago):

LFBG 010030Z AUTO 22003KT CAVOK 15/13 Q1015

Closest aviation forecast (TAF) to Centre Hospitalier Heliport

Forecast is more than 12 hours old.

Closest forecast is Cognac-Ch√Ęteaubernard (BA 709) Air Base, 31.2 nm (57.8 km) E. Retrieved 2021/07/30 13:27 UTC (1 day ago):

TAF TAF LFBG 301323Z 3013/3109 CNL